Junction, Texas
Current Conditions -  °F | °C
As of 6:51 AM on Thursday 23 Oct 2014 (Local Time) from KJCT Reporting Station
Haze Haze  
Wind Chill: 56°   Ceiling: Unl
Heat Index: 56°   Visibility: 5mi
Dew Point: 55°   Wind: 3mph
Humidity: 97%   Direction: 290°WNW
Pressure: 30.13"   Gusts: NA
Location:  30.49°N, 99.77°W
Report Text: KJCT 231151Z AUTO 29003KT 5SM BR CLR 13/13 A3013 RMK AO2 SLP176 70003 T01330128 10172 20133 53004
Loading
Personal Weather Stations






























Interactive Weather Map
Tropical Storm Tracking
New forecast layout! Learn more

10-Day Weather Forecast

Advertisements
Track Severe Weather on mobile